Time;durP1;ratioP1;P1;durP2;ratioP2;P2;SDS_P1;SDS_P2;PMS_P1;PMS_P2;Temp;Humidity;BMP_temperature;BMP_pressure;BME280_temperature;BME280_humidity;BME280_pressure;Samples;Min_cycle;Max_cycle;Signal;HPM_P1;HPM_P2
2021/05/13 00:01:22;;;;;;;3.13;2.00;;;;;;;16.33;57.42;99445.25;712165;1181;113781;-74
2021/05/13 00:16:45;;;;;;;5.85;2.30;;;;;;;16.13;57.80;99430.05;712251;1203;114856;-75
2021/05/13 00:32:05;;;;;;;4.65;2.48;;;;;;;15.89;58.52;99426.00;712479;1203;114879;-75
2021/05/13 00:47:28;;;;;;;3.85;2.30;;;;;;;15.64;58.52;99423.71;712339;1208;115139;-75
2021/05/13 01:02:49;;;;;;;5.95;3.15;;;;;;;15.34;59.18;99415.08;712959;1205;114942;-75
2021/05/13 01:18:24;;;;;;;7.00;2.83;;;;;;;14.97;60.00;99407.16;713377;1203;115091;-74
2021/05/13 01:33:44;;;;;;;5.53;2.37;;;;;;;14.66;60.99;99403.92;712944;1203;113780;-75
2021/05/13 01:49:15;;;;;;;4.13;2.00;;;;;;;14.36;61.65;99402.09;712461;1203;114434;-75
2021/05/13 02:04:36;;;;;;;5.63;2.30;;;;;;;14.20;61.98;99381.14;712829;1203;115348;-75
2021/05/13 02:19:56;;;;;;;4.13;2.40;;;;;;;13.98;63.34;99375.77;712903;1208;115021;-74
2021/05/13 02:35:16;;;;;;;5.73;2.90;;;;;;;13.78;63.00;99349.09;712848;1209;114957;-74
2021/05/13 02:50:37;;;;;;;7.70;2.47;;;;;;;13.65;64.46;99347.06;712661;1203;114103;-74
2021/05/13 03:05:58;;;;;;;4.27;1.80;;;;;;;13.37;64.96;99337.08;712857;1203;115255;-75
2021/05/13 03:21:27;;;;;;;2.63;1.93;;;;;;;13.20;66.18;99330.27;714515;1204;113842;-74
2021/05/13 03:36:49;;;;;;;5.28;2.30;;;;;;;13.17;67.18;99333.23;714324;1203;117611;-74
2021/05/13 03:52:10;;;;;;;6.63;2.97;;;;;;;13.27;68.41;99332.00;713633;1203;114852;-74
2021/05/13 04:07:36;;;;;;;7.18;2.48;;;;;;;13.59;67.91;99329.31;713827;1203;115175;-74
2021/05/13 04:22:57;;;;;;;5.97;2.40;;;;;;;13.87;67.85;99324.30;713099;1203;115033;-74
2021/05/13 04:38:18;;;;;;;4.55;2.55;;;;;;;14.11;67.99;99304.75;713015;1206;115103;-74
2021/05/13 04:53:38;;;;;;;4.87;2.40;;;;;;;14.49;67.82;99295.91;713011;1205;115070;-74
2021/05/13 05:09:00;;;;;;;2.33;1.70;;;;;;;14.97;67.47;99284.88;715854;1169;114431;-74
2021/05/13 05:24:20;;;;;;;6.75;2.20;;;;;;;15.43;65.41;99278.38;712926;1203;115309;-74
2021/05/13 05:39:41;;;;;;;4.50;1.83;;;;;;;15.98;65.16;99265.32;712284;1205;115068;-72
2021/05/13 05:55:04;;;;;;;6.50;2.37;;;;;;;16.33;63.83;99249.41;712462;1203;114951;-73
2021/05/13 06:10:25;;;;;;;5.60;1.90;;;;;;;16.67;63.55;99239.75;713266;1208;114945;-75
2021/05/13 06:25:45;;;;;;;9.80;3.85;;;;;;;17.27;62.78;99239.81;712929;1177;115185;-74
2021/05/13 06:41:07;;;;;;;7.53;2.00;;;;;;;18.11;61.26;99224.17;712924;1207;113007;-74
2021/05/13 06:56:27;;;;;;;5.20;2.20;;;;;;;18.83;58.83;99239.09;712888;1203;115303;-74
2021/05/13 07:11:48;;;;;;;10.45;3.40;;;;;;;19.87;58.65;99230.67;713779;1203;114829;-74
2021/05/13 07:27:13;;;;;;;11.00;2.43;;;;;;;22.18;54.35;99212.53;713439;1203;114353;-71
2021/05/13 07:42:33;;;;;;;5.93;1.90;;;;;;;23.39;52.89;99207.92;712858;1203;115012;-71
2021/05/13 07:57:53;;;;;;;6.47;1.77;;;;;;;23.43;50.51;99199.14;710351;1206;115366;-71
2021/05/13 08:13:16;;;;;;;9.80;3.20;;;;;;;23.87;48.61;99184.17;711756;1201;115136;-71
2021/05/13 08:28:36;;;;;;;5.63;1.97;;;;;;;24.29;47.50;99169.40;712058;1205;114691;-72
2021/05/13 08:43:57;;;;;;;2.40;1.00;;;;;;;24.38;46.19;99171.36;712769;1203;113651;-74
2021/05/13 08:59:18;;;;;;;3.53;1.17;;;;;;;24.90;45.53;99150.37;713114;1203;114895;-74
2021/05/13 09:14:38;;;;;;;10.23;2.63;;;;;;;24.98;43.93;99132.98;713167;1206;115016;-73
2021/05/13 09:30:13;;;;;;;9.30;1.70;;;;;;;25.44;43.71;99127.11;730253;1203;114485;-74
2021/05/13 09:45:47;;;;;;;7.10;1.93;;;;;;;25.32;43.15;99119.23;713111;1205;115198;-69
2021/05/13 10:01:13;;;;;;;9.08;2.40;;;;;;;25.32;42.09;99101.25;712833;1203;113771;-71
2021/05/13 10:16:35;;;;;;;5.63;2.47;;;;;;;25.60;41.57;99083.13;713624;1203;115182;-72
2021/05/13 10:32:01;;;;;;;5.10;1.60;;;;;;;26.80;41.53;99060.69;713681;1204;114127;-71
2021/05/13 10:47:30;;;;;;;5.43;3.13;;;;;;;26.56;40.55;99066.61;713445;1203;113672;-72
2021/05/13 11:02:51;;;;;;;;;;;;;;;26.87;38.52;99061.19;713086;1206;115272;-72
2021/05/13 11:18:13;;;;;;;16.20;7.28;;;;;;;26.93;38.99;99046.66;713141;1203;100886;-72
2021/05/13 11:33:46;;;;;;;4.83;1.80;;;;;;;27.41;40.15;99032.77;713896;1205;115568;-68
2021/05/13 11:49:07;;;;;;;8.55;5.20;;;;;;;27.35;40.11;99023.09;718591;1204;114938;-71
2021/05/13 12:04:27;;;;;;;8.20;3.23;;;;;;;28.04;40.44;99004.38;713703;1205;114306;-71
2021/05/13 12:19:48;;;;;;;9.08;2.15;;;;;;;27.67;39.83;98982.25;713346;1203;113480;-73
2021/05/13 12:35:26;;;;;;;13.68;4.70;;;;;;;27.06;40.96;98981.50;712932;1206;115027;-73
2021/05/13 12:51:01;;;;;;;2.30;1.70;;;;;;;27.05;40.72;98960.25;713302;1206;115118;-73
2021/05/13 13:06:21;;;;;;;4.60;1.47;;;;;;;27.13;40.66;98950.80;712742;1179;114048;-74
2021/05/13 13:21:57;;;;;;;6.60;1.50;;;;;;;27.83;39.64;98936.35;713076;1209;113685;-72
2021/05/13 13:37:18;;;;;;;12.20;5.97;;;;;;;28.04;40.18;98926.22;713866;1203;114929;-72
2021/05/13 13:52:39;;;;;;;3.85;2.10;;;;;;;28.28;39.18;98910.06;713327;1205;115130;-72
2021/05/13 14:07:59;;;;;;;3.20;1.70;;;;;;;28.47;39.35;98901.27;713697;1180;113639;-73
2021/05/13 14:23:20;;;;;;;3.55;1.10;;;;;;;29.37;38.36;98883.34;713243;1205;114806;-72
2021/05/13 14:38:41;;;;;;;1.85;1.25;;;;;;;28.69;38.67;98874.58;713656;1203;115293;-72
2021/05/13 14:54:03;;;;;;;6.63;1.65;;;;;;;26.91;40.29;98873.98;713473;1203;115056;-71
2021/05/13 15:09:23;;;;;;;5.03;1.53;;;;;;;26.61;41.16;98867.63;713006;1203;114268;-70
2021/05/13 15:24:44;;;;;;;20.50;11.50;;;;;;;25.96;42.60;98868.34;713510;1203;114463;-71
2021/05/13 15:40:06;;;;;;;10.87;6.13;;;;;;;24.16;46.85;98874.06;713076;1206;115460;-71
2021/05/13 15:55:26;;;;;;;39.43;25.03;;;;;;;23.96;47.41;98874.75;712892;1203;114830;-72
2021/05/13 16:26:08;;;;;;;9.70;3.65;;;;;;;23.29;49.17;98881.41;719709;1203;114654;-70
2021/05/13 16:41:28;;;;;;;9.58;3.75;;;;;;;22.84;49.63;98894.02;713234;1203;113984;-78
2021/05/13 16:56:49;;;;;;;7.00;4.05;;;;;;;22.41;50.49;98889.22;713394;1206;114339;-79
2021/05/13 17:12:10;;;;;;;13.28;7.05;;;;;;;21.94;51.19;98900.27;713809;1203;115047;-79
2021/05/13 17:27:32;;;;;;;7.10;3.80;;;;;;;21.74;52.37;98888.22;713551;1196;114650;-77
2021/05/13 17:42:53;;;;;;;7.60;3.70;;;;;;;19.97;54.62;98886.03;713012;1203;114916;-78
2021/05/13 17:58:14;;;;;;;33.13;15.83;;;;;;;19.54;55.36;98895.91;714118;1207;113780;-80
2021/05/13 18:13:36;;;;;;;22.40;11.13;;;;;;;19.43;56.47;98906.28;714375;1208;115700;-79
2021/05/13 18:28:57;;;;;;;8.08;3.93;;;;;;;19.14;57.29;98896.48;713497;1203;113829;-80
2021/05/13 18:44:21;;;;;;;9.35;2.90;;;;;;;18.76;58.53;98893.83;713847;1203;115007;-77
2021/05/13 18:59:41;;;;;;;35.90;16.45;;;;;;;18.59;60.59;98900.77;713571;1203;113949;-76
2021/05/13 19:15:02;;;;;;;6.80;3.60;;;;;;;18.36;62.18;98912.06;714207;1203;115298;-74
2021/05/13 19:45:54;;;;;;;13.28;8.00;;;;;;;18.00;65.54;98901.16;713201;1203;115544;-74
2021/05/13 20:01:14;;;;;;;60.00;22.70;;;;;;;17.99;65.99;98912.80;713146;1203;114217;-74
2021/05/13 20:16:35;;;;;;;13.77;8.20;;;;;;;17.78;66.65;98901.48;713664;1203;114438;-75
2021/05/13 20:31:56;;;;;;;56.25;21.75;;;;;;;17.74;66.31;98915.41;713778;1205;113847;-75
2021/05/13 20:47:17;;;;;;;24.03;12.13;;;;;;;17.21;67.58;98913.88;714663;1203;114708;-74
2021/05/13 21:02:40;;;;;;;40.77;18.83;;;;;;;16.87;68.16;98914.02;714436;1203;114488;-74
2021/05/13 21:33:40;;;;;;;43.45;18.10;;;;;;;16.13;70.36;98916.82;715123;1203;115512;-74
2021/05/13 21:49:00;;;;;;;9.15;5.65;;;;;;;15.50;75.47;98908.44;712740;1206;113984;-76
2021/05/13 22:04:21;;;;;;;9.83;5.27;;;;;;;15.43;75.85;98896.02;712612;1179;113736;-78
2021/05/13 22:19:48;;;;;;;10.70;5.00;;;;;;;15.44;76.58;98891.53;712926;1203;114701;-77
2021/05/13 22:35:09;;;;;;;8.40;4.73;;;;;;;15.25;76.20;98867.52;713253;1203;114571;-76
2021/05/13 22:50:30;;;;;;;6.30;3.60;;;;;;;14.64;77.27;98850.67;712871;1181;113822;-75
2021/05/13 23:05:50;;;;;;;27.40;11.90;;;;;;;14.27;78.99;98851.89;713086;1203;114770;-77
2021/05/13 23:21:11;;;;;;;15.63;7.23;;;;;;;13.79;81.07;98847.30;713318;1203;115051;-75
2021/05/13 23:36:32;;;;;;;16.05;8.75;;;;;;;13.64;82.90;98856.09;712994;1196;113957;-76
2021/05/13 23:51:54;;;;;;;9.03;5.97;;;;;;;13.19;84.60;98841.48;713307;1203;115135;-77
